sensor_id;sensor_type;location;lat;lon;timestamp;pressure;altitude;pressure_sealevel;temperature;humidity
29815;BME280;16708;50.426;7.664;2022-11-09T00:06:20;980.82;;;14.67;100.00
29815;BME280;16708;50.426;7.664;2022-11-09T00:20:58;980.82;;;14.70;100.00
29815;BME280;16708;50.426;7.664;2022-11-09T00:35:36;980.66;;;14.58;100.00
29815;BME280;16708;50.426;7.664;2022-11-09T00:50:11;980.48;;;14.39;100.00
29815;BME280;16708;50.426;7.664;2022-11-09T01:04:50;980.79;;;14.39;100.00
29815;BME280;16708;50.426;7.664;2022-11-09T01:19:30;980.92;;;14.44;100.00
29815;BME280;16708;50.426;7.664;2022-11-09T01:34:06;980.74;;;14.30;100.00
29815;BME280;16708;50.426;7.664;2022-11-09T01:48:44;980.44;;;14.26;100.00
29815;BME280;16708;50.426;7.664;2022-11-09T02:03:25;980.44;;;14.24;100.00
29815;BME280;16708;50.426;7.664;2022-11-09T02:17:56;980.42;;;14.28;100.00
29815;BME280;16708;50.426;7.664;2022-11-09T02:32:31;980.55;;;14.29;100.00
29815;BME280;16708;50.426;7.664;2022-11-09T02:47:08;980.49;;;14.22;100.00
29815;BME280;16708;50.426;7.664;2022-11-09T03:01:47;980.42;;;14.18;100.00
29815;BME280;16708;50.426;7.664;2022-11-09T03:16:23;980.58;;;14.01;100.00
29815;BME280;16708;50.426;7.664;2022-11-09T03:31:02;980.84;;;14.02;100.00
29815;BME280;16708;50.426;7.664;2022-11-09T03:45:41;980.92;;;14.00;100.00
29815;BME280;16708;50.426;7.664;2022-11-09T04:00:24;981.02;;;13.99;100.00
29815;BME280;16708;50.426;7.664;2022-11-09T04:14:55;980.80;;;13.80;100.00
29815;BME280;16708;50.426;7.664;2022-11-09T04:29:34;980.73;;;13.84;100.00
29815;BME280;16708;50.426;7.664;2022-11-09T04:44:13;980.66;;;14.11;100.00
29815;BME280;16708;50.426;7.664;2022-11-09T04:58:52;980.67;;;14.08;100.00
29815;BME280;16708;50.426;7.664;2022-11-09T05:13:31;980.61;;;14.04;100.00
29815;BME280;16708;50.426;7.664;2022-11-09T05:28:10;980.83;;;13.74;100.00
29815;BME280;16708;50.426;7.664;2022-11-09T05:42:48;980.86;;;13.76;100.00
29815;BME280;16708;50.426;7.664;2022-11-09T05:57:24;980.85;;;14.14;100.00
29815;BME280;16708;50.426;7.664;2022-11-09T06:12:03;980.82;;;13.93;100.00
29815;BME280;16708;50.426;7.664;2022-11-09T06:26:44;981.10;;;13.84;100.00
29815;BME280;16708;50.426;7.664;2022-11-09T06:41:22;981.20;;;13.85;100.00
29815;BME280;16708;50.426;7.664;2022-11-09T06:56:01;981.35;;;13.92;100.00
29815;BME280;16708;50.426;7.664;2022-11-09T07:10:41;981.50;;;13.93;100.00
29815;BME280;16708;50.426;7.664;2022-11-09T07:25:20;981.46;;;14.13;100.00
29815;BME280;16708;50.426;7.664;2022-11-09T07:39:59;981.57;;;14.15;100.00
29815;BME280;16708;50.426;7.664;2022-11-09T07:54:38;981.69;;;14.46;100.00
29815;BME280;16708;50.426;7.664;2022-11-09T08:09:19;981.85;;;14.73;100.00
29815;BME280;16708;50.426;7.664;2022-11-09T08:23:59;981.95;;;14.78;100.00
29815;BME280;16708;50.426;7.664;2022-11-09T08:38:38;982.09;;;15.06;100.00
29815;BME280;16708;50.426;7.664;2022-11-09T08:53:24;982.09;;;17.31;100.00
29815;BME280;16708;50.426;7.664;2022-11-09T09:08:03;982.27;;;15.33;100.00
29815;BME280;16708;50.426;7.664;2022-11-09T09:22:38;982.42;;;15.13;100.00
29815;BME280;16708;50.426;7.664;2022-11-09T09:37:16;982.33;;;15.98;100.00
29815;BME280;16708;50.426;7.664;2022-11-09T09:51:55;982.39;;;15.05;100.00
29815;BME280;16708;50.426;7.664;2022-11-09T10:21:09;982.64;;;15.80;100.00
29815;BME280;16708;50.426;7.664;2022-11-09T10:35:52;982.65;;;16.03;100.00
29815;BME280;16708;50.426;7.664;2022-11-09T11:34:20;982.91;;;14.85;100.00
29815;BME280;16708;50.426;7.664;2022-11-09T12:47:30;982.75;;;14.87;100.00
29815;BME280;16708;50.426;7.664;2022-11-09T13:02:07;982.86;;;14.66;100.00
29815;BME280;16708;50.426;7.664;2022-11-09T13:31:22;982.89;;;14.46;100.00
29815;BME280;16708;50.426;7.664;2022-11-09T14:00:38;982.91;;;14.34;100.00
29815;BME280;16708;50.426;7.664;2022-11-09T14:15:17;982.93;;;14.29;100.00
29815;BME280;16708;50.426;7.664;2022-11-09T14:44:32;983.13;;;14.50;100.00
29815;BME280;16708;50.426;7.664;2022-11-09T14:59:01;983.25;;;14.12;100.00
29815;BME280;16708;50.426;7.664;2022-11-09T15:13:39;983.41;;;13.94;100.00
29815;BME280;16708;50.426;7.664;2022-11-09T15:28:18;983.50;;;13.61;100.00
29815;BME280;16708;50.426;7.664;2022-11-09T15:42:55;983.69;;;13.31;100.00
29815;BME280;16708;50.426;7.664;2022-11-09T15:57:32;983.84;;;13.11;100.00
29815;BME280;16708;50.426;7.664;2022-11-09T16:12:02;983.92;;;12.87;100.00
29815;BME280;16708;50.426;7.664;2022-11-09T16:26:35;984.08;;;12.70;100.00
29815;BME280;16708;50.426;7.664;2022-11-09T16:41:12;984.51;;;12.82;100.00
29815;BME280;16708;50.426;7.664;2022-11-09T16:55:50;984.57;;;12.57;100.00
29815;BME280;16708;50.426;7.664;2022-11-09T17:10:28;984.87;;;12.42;100.00
29815;BME280;16708;50.426;7.664;2022-11-09T17:25:06;985.07;;;12.22;100.00
29815;BME280;16708;50.426;7.664;2022-11-09T17:39:44;985.27;;;12.07;100.00
29815;BME280;16708;50.426;7.664;2022-11-09T17:54:24;985.48;;;11.81;100.00
29815;BME280;16708;50.426;7.664;2022-11-09T18:09:01;985.77;;;11.90;100.00
29815;BME280;16708;50.426;7.664;2022-11-09T18:23:35;985.90;;;11.66;100.00
29815;BME280;16708;50.426;7.664;2022-11-09T18:38:12;986.24;;;11.72;100.00
29815;BME280;16708;50.426;7.664;2022-11-09T18:52:50;986.29;;;11.65;100.00
29815;BME280;16708;50.426;7.664;2022-11-09T19:07:29;986.49;;;11.60;100.00
29815;BME280;16708;50.426;7.664;2022-11-09T19:22:05;986.64;;;11.44;100.00
29815;BME280;16708;50.426;7.664;2022-11-09T19:36:43;986.88;;;11.46;100.00
29815;BME280;16708;50.426;7.664;2022-11-09T19:51:16;987.21;;;11.53;100.00
29815;BME280;16708;50.426;7.664;2022-11-09T20:05:51;987.28;;;11.23;100.00
29815;BME280;16708;50.426;7.664;2022-11-09T20:20:28;987.46;;;11.01;100.00
29815;BME280;16708;50.426;7.664;2022-11-09T20:35:04;987.72;;;10.83;100.00
29815;BME280;16708;50.426;7.664;2022-11-09T20:49:42;988.05;;;10.87;100.00
29815;BME280;16708;50.426;7.664;2022-11-09T21:04:22;988.22;;;11.04;100.00
29815;BME280;16708;50.426;7.664;2022-11-09T21:19:01;988.34;;;10.87;100.00
29815;BME280;16708;50.426;7.664;2022-11-09T21:33:38;988.49;;;10.69;100.00
29815;BME280;16708;50.426;7.664;2022-11-09T21:48:15;988.75;;;10.84;100.00
29815;BME280;16708;50.426;7.664;2022-11-09T22:02:52;988.85;;;10.75;100.00
29815;BME280;16708;50.426;7.664;2022-11-09T22:17:31;988.92;;;10.65;100.00
29815;BME280;16708;50.426;7.664;2022-11-09T22:32:09;989.03;;;10.31;100.00
29815;BME280;16708;50.426;7.664;2022-11-09T22:46:43;989.11;;;10.25;100.00
29815;BME280;16708;50.426;7.664;2022-11-09T23:01:22;989.20;;;10.33;100.00
29815;BME280;16708;50.426;7.664;2022-11-09T23:16:00;989.23;;;10.60;100.00
29815;BME280;16708;50.426;7.664;2022-11-09T23:30:38;989.40;;;10.66;100.00
29815;BME280;16708;50.426;7.664;2022-11-09T23:45:18;989.59;;;10.63;100.00
29815;BME280;16708;50.426;7.664;2022-11-09T23:59:55;989.84;;;10.55;100.00
